Time;durP1;ratioP1;P1;durP2;ratioP2;P2;SDS_P1;SDS_P2;PMS_P1;PMS_P2;Temp;Humidity;BMP_temperature;BMP_pressure;BME280_temperature;BME280_humidity;BME280_pressure;Samples;Min_cycle;Max_cycle;Signal;HPM_P1;HPM_P2
2023/06/18 00:08:11;;;;;;;17.90;16.00;;;;;;;14.41;69.73;98347.46;436485;1253;112192;-42
2023/06/18 00:18:19;;;;;;;15.60;14.00;;;;;;;14.32;69.74;98349.85;436283;1252;107957;-44
2023/06/18 00:28:28;;;;;;;17.60;14.90;;;;;;;14.28;69.92;98343.03;436217;1253;99340;-44
2023/06/18 00:38:36;;;;;;;20.50;14.50;;;;;;;14.14;70.07;98348.17;436258;1253;106829;-43
2023/06/18 00:48:45;;;;;;;17.40;15.50;;;;;;;13.93;70.35;98346.54;436297;1251;99845;-42
2023/06/18 00:58:52;;;;;;;17.10;15.40;;;;;;;13.72;70.83;98346.70;436474;1252;110795;-43
2023/06/18 01:19:07;;;;;;;18.90;12.80;;;;;;;13.52;71.43;98344.39;435296;1254;99215;-44
2023/06/18 01:29:16;;;;;;;18.00;13.40;;;;;;;13.61;71.73;98333.76;435423;1253;107872;-44
2023/06/18 01:39:27;;;;;;;13.90;12.50;;;;;;;13.53;71.87;98334.71;435517;1251;97976;-43
2023/06/18 01:49:36;;;;;;;18.50;14.70;;;;;;;13.37;72.25;98334.02;435616;1251;111269;-43
2023/06/18 01:59:41;;;;;;;;;;;;;;;13.19;72.26;98346.88;435478;1253;108267;-42
2023/06/18 02:09:48;;;;;;;14.30;11.90;;;;;;;13.05;72.53;98357.90;435610;1249;99228;-43
2023/06/18 02:19:55;;;;;;;16.80;13.70;;;;;;;12.94;72.77;98361.55;436371;1253;108830;-44
2023/06/18 02:40:14;;;;;;;17.70;15.70;;;;;;;12.92;73.25;98376.61;436360;1252;111199;-43
2023/06/18 02:50:20;;;;;;;;;;;;;;;12.73;73.43;98383.15;436350;1254;106907;-43
2023/06/18 03:00:28;;;;;;;22.60;16.80;;;;;;;12.46;73.51;98391.91;436501;1251;98738;-43
2023/06/18 03:10:34;;;;;;;18.10;15.20;;;;;;;12.38;73.65;98393.00;436171;1252;109490;-44
2023/06/18 03:30:48;;;;;;;18.50;14.70;;;;;;;12.69;74.28;98401.58;435787;1250;498876;-44
2023/06/18 03:40:56;;;;;;;24.70;17.10;;;;;;;13.46;74.35;98400.95;436264;1253;107497;-44
2023/06/18 04:01:12;;;;;;;19.70;15.80;;;;;;;14.90;73.47;98409.05;436445;1248;108053;-43
2023/06/18 04:11:20;;;;;;;19.60;16.80;;;;;;;16.22;72.97;98406.80;436481;1251;99237;-44
2023/06/18 04:21:27;;;;;;;17.80;15.80;;;;;;;17.44;71.43;98417.81;436430;1253;111515;-44
2023/06/18 04:41:42;;;;;;;14.50;13.00;;;;;;;20.01;69.68;98424.52;436364;1248;99224;-42
2023/06/18 04:51:48;;;;;;;;;;;;;;;21.96;68.30;98425.17;436297;1253;107450;-42
2023/06/18 05:01:55;;;;;;;13.50;12.10;;;;;;;23.17;66.24;98433.10;436281;1251;98836;-42
2023/06/18 05:12:03;;;;;;;13.10;11.70;;;;;;;23.98;64.82;98432.72;436336;1248;110628;-42
2023/06/18 05:22:10;;;;;;;13.20;11.70;;;;;;;24.47;62.92;98435.02;436481;1253;109544;-42
2023/06/18 05:32:16;;;;;;;;;;;;;;;24.56;61.88;98447.86;436457;1253;98811;-42
2023/06/18 05:42:23;;;;;;;14.60;12.60;;;;;;;24.47;61.28;98454.86;436303;1253;108678;-43
2023/06/18 05:52:30;;;;;;;13.40;11.70;;;;;;;24.57;60.10;98455.11;436420;1253;98578;-42
2023/06/18 06:02:37;;;;;;;13.60;11.40;;;;;;;24.61;59.42;98457.80;436388;1247;111805;-42
2023/06/18 06:12:45;;;;;;;10.50;9.60;;;;;;;25.07;58.98;98454.09;436292;1251;108350;-42
2023/06/18 06:22:52;;;;;;;9.20;8.30;;;;;;;25.68;57.37;98455.07;436415;1253;99322;-42
2023/06/18 06:32:59;;;;;;;10.00;9.00;;;;;;;25.56;56.32;98465.01;436367;1252;108634;-45
2023/06/18 06:43:07;;;;;;;7.90;7.20;;;;;;;25.58;55.58;98469.00;436601;1253;99232;-42
2023/06/18 06:53:13;;;;;;;7.50;6.80;;;;;;;25.44;54.75;98463.40;436472;1253;111233;-43
2023/06/18 07:03:22;;;;;;;7.30;6.30;;;;;;;24.62;54.05;98468.92;436225;1248;108693;-44
2023/06/18 07:13:29;;;;;;;5.80;5.30;;;;;;;24.80;54.44;98470.98;436474;1252;99222;-43
2023/06/18 07:23:37;;;;;;;6.50;6.00;;;;;;;25.65;53.34;98467.86;436359;1253;108203;-43
2023/06/18 07:33:44;;;;;;;7.30;6.50;;;;;;;25.86;52.30;98472.05;436241;1253;99215;-44
2023/06/18 07:43:52;;;;;;;8.00;7.30;;;;;;;25.89;51.37;98470.82;436470;1248;113465;-41
2023/06/18 07:53:59;;;;;;;8.00;7.40;;;;;;;25.60;50.46;98477.98;436216;1252;107743;-43
2023/06/18 08:14:11;;;;;;;5.30;4.90;;;;;;;25.72;50.17;98475.02;436382;1253;108246;-42
2023/06/18 08:24:18;;;;;;;6.30;5.80;;;;;;;25.70;49.15;98477.27;436373;1251;99333;-42
2023/06/18 08:34:26;;;;;;;5.70;5.20;;;;;;;26.04;49.46;98475.91;436402;1250;111227;-43
2023/06/18 08:44:34;;;;;;;6.70;6.10;;;;;;;25.46;48.64;98482.57;436378;1248;107225;-46
2023/06/18 08:54:43;;;;;;;7.60;6.80;;;;;;;24.60;48.78;98483.57;436375;1251;99247;-42
2023/06/18 09:04:54;;;;;;;8.30;7.50;;;;;;;23.69;49.61;98481.04;436280;1253;107744;-43
2023/06/18 09:15:02;;;;;;;10.80;8.70;;;;;;;23.80;50.92;98486.45;436457;1253;99212;-49
2023/06/18 09:25:09;;;;;;;10.40;9.40;;;;;;;23.56;52.08;98488.09;436271;1254;111988;-43
2023/06/18 09:35:18;;;;;;;10.30;9.30;;;;;;;23.36;53.14;98480.66;436326;1254;107689;-42
2023/06/18 09:45:26;;;;;;;9.50;8.40;;;;;;;23.41;53.58;98474.29;436640;1251;97966;-43
2023/06/18 09:55:34;;;;;;;8.30;7.50;;;;;;;23.83;53.20;98469.06;436392;1253;108516;-43
2023/06/18 10:05:42;;;;;;;9.80;8.60;;;;;;;24.20;52.17;98462.61;436196;1251;99205;-42
2023/06/18 10:15:50;;;;;;;7.90;6.90;;;;;;;24.05;52.48;98464.27;436207;1253;111783;-43
2023/06/18 10:25:58;;;;;;;6.80;6.00;;;;;;;24.90;52.07;98455.92;436312;1253;108932;-44
2023/06/18 10:46:09;;;;;;;6.20;5.70;;;;;;;25.00;48.64;98458.25;436267;1254;108465;-42
2023/06/18 10:56:17;;;;;;;4.70;4.10;;;;;;;24.53;48.07;98468.61;436376;1254;99228;-43
2023/06/18 11:06:30;;;;;;;5.50;5.00;;;;;;;24.62;47.36;98460.94;436378;1248;110709;-43
2023/06/18 11:16:38;;;;;;;9.40;7.60;;;;;;;24.96;47.55;98457.09;436431;1254;106708;-43
2023/06/18 11:26:45;;;;;;;8.00;7.20;;;;;;;25.19;48.47;98450.71;436428;1254;99309;-43
2023/06/18 11:36:52;;;;;;;9.10;8.10;;;;;;;24.91;48.99;98445.75;436350;1254;108038;-43
2023/06/18 11:47:02;;;;;;;9.30;8.00;;;;;;;24.22;49.74;98450.02;436363;1248;98839;-41
2023/06/18 11:57:12;;;;;;;8.10;7.40;;;;;;;23.28;50.92;98442.01;436381;1248;111623;-43
2023/06/18 12:07:21;;;;;;;9.00;7.20;;;;;;;23.23;51.75;98451.44;436409;1251;108251;-45
2023/06/18 12:17:29;;;;;;;8.70;7.80;;;;;;;23.12;51.58;98446.44;436439;1248;99205;-43
2023/06/18 12:27:37;;;;;;;8.50;7.20;;;;;;;22.95;52.00;98446.99;436266;1248;107743;-44
2023/06/18 12:47:47;;;;;;;7.50;6.80;;;;;;;23.25;52.42;98454.38;436366;1261;111094;-42
2023/06/18 12:57:55;;;;;;;7.30;6.40;;;;;;;23.75;52.05;98447.88;436430;1261;108573;-44
2023/06/18 13:08:02;;;;;;;6.40;5.80;;;;;;;23.79;51.52;98447.61;436300;1252;99259;-42
2023/06/18 13:38:23;;;;;;;6.70;6.00;;;;;;;23.04;52.36;98462.64;436359;1248;112232;-41
2023/06/18 13:48:30;;;;;;;6.20;5.60;;;;;;;22.79;53.21;98470.52;436308;1253;107968;-45
2023/06/18 13:58:37;;;;;;;7.00;5.70;;;;;;;22.59;53.27;98467.70;436367;1248;98031;-44
2023/06/18 14:08:45;;;;;;;8.00;6.00;;;;;;;22.85;53.23;98462.06;436357;1261;108466;-44
2023/06/18 14:18:53;;;;;;;7.60;6.80;;;;;;;23.03;53.19;98452.98;436469;1249;101477;-43
2023/06/18 14:29:01;;;;;;;6.70;6.10;;;;;;;23.25;53.33;98439.02;436364;1250;110653;-43
2023/06/18 14:39:09;;;;;;;6.40;5.90;;;;;;;23.31;53.03;98446.00;436337;1248;107724;-42
2023/06/18 14:49:17;;;;;;;6.10;5.60;;;;;;;23.26;52.72;98453.93;436352;1253;99228;-43
2023/06/18 14:59:24;;;;;;;4.20;3.80;;;;;;;23.13;51.83;98456.11;436324;1251;108383;-44
2023/06/18 15:09:31;;;;;;;4.10;3.70;;;;;;;23.04;51.31;98453.35;436240;1248;99233;-43
2023/06/18 15:19:39;;;;;;;4.10;3.80;;;;;;;23.10;50.64;98440.44;436280;1254;111496;-42
2023/06/18 15:29:46;;;;;;;5.30;4.20;;;;;;;23.24;50.29;98427.83;435981;1252;457955;-43
2023/06/18 15:39:53;;;;;;;8.90;4.90;;;;;;;23.31;50.06;98427.44;436278;1248;97966;-43
2023/06/18 15:50:01;;;;;;;4.40;3.90;;;;;;;23.20;49.55;98433.25;436315;1254;107933;-43
2023/06/18 16:00:10;;;;;;;4.60;4.20;;;;;;;23.09;49.04;98440.69;436270;1255;99337;-44
2023/06/18 16:10:17;;;;;;;4.20;3.90;;;;;;;22.97;48.54;98441.28;436249;1254;111444;-43
2023/06/18 16:20:25;;;;;;;5.50;4.60;;;;;;;22.94;48.30;98441.55;436374;1248;108672;-44
2023/06/18 16:30:34;;;;;;;7.10;4.90;;;;;;;22.91;48.45;98437.47;436417;1251;101525;-44
2023/06/18 16:40:39;;;;;;;;;;;;;;;22.73;48.67;98436.62;436341;1254;108627;-43
2023/06/18 16:50:47;;;;;;;6.10;5.50;;;;;;;22.46;49.24;98439.89;436375;1252;99308;-48
2023/06/18 17:00:55;;;;;;;6.50;5.90;;;;;;;22.22;49.87;98451.01;436350;1248;111708;-43
2023/06/18 17:11:02;;;;;;;7.50;6.30;;;;;;;22.11;50.35;98457.27;436319;1258;107899;-44
2023/06/18 17:21:10;;;;;;;6.00;5.50;;;;;;;22.12;50.83;98461.38;436279;1251;99205;-43
2023/06/18 17:31:23;;;;;;;7.30;6.00;;;;;;;21.96;51.12;98470.23;436240;1253;108201;-43
2023/06/18 17:41:28;;;;;;;;;;;;;;;21.87;51.64;98472.77;436391;1253;98808;-44
2023/06/18 18:01:42;;;;;;;9.60;6.30;;;;;;;21.52;52.85;98477.33;436162;1253;109472;-42
2023/06/18 18:11:49;;;;;;;;;;;;;;;21.38;53.37;98480.05;436263;1253;97980;-43
2023/06/18 18:21:56;;;;;;;10.50;6.90;;;;;;;21.16;54.02;98490.95;436344;1248;108758;-44
2023/06/18 18:32:03;;;;;;;9.40;6.60;;;;;;;20.92;54.45;98493.60;436258;1253;99217;-44
2023/06/18 18:42:11;;;;;;;6.80;6.20;;;;;;;20.62;55.08;98497.58;436352;1254;110897;-43
2023/06/18 18:52:18;;;;;;;8.30;7.50;;;;;;;20.34;55.69;98505.39;436228;1248;108480;-41
2023/06/18 19:22:40;;;;;;;14.20;10.80;;;;;;;19.86;58.03;98524.94;436355;1252;99244;-43
2023/06/18 19:32:47;;;;;;;16.20;10.40;;;;;;;19.39;58.67;98528.92;436327;1247;111381;-44
2023/06/18 19:42:54;;;;;;;24.50;12.30;;;;;;;18.96;59.36;98536.77;436321;1253;108606;-44
2023/06/18 19:53:02;;;;;;;16.70;10.50;;;;;;;18.56;59.81;98537.23;436227;1252;99569;-44
2023/06/18 20:03:09;;;;;;;17.70;10.80;;;;;;;18.17;60.37;98542.78;436205;1253;107882;-43
2023/06/18 20:13:16;;;;;;;;;;;;;;;17.78;61.41;98553.30;436372;1251;99469;-43
2023/06/18 20:23:23;;;;;;;16.40;11.90;;;;;;;17.56;62.26;98556.20;436245;1253;112258;-43
2023/06/18 20:33:32;;;;;;;10.80;9.60;;;;;;;17.39;62.64;98559.09;436147;1252;106418;-44
2023/06/18 20:43:39;;;;;;;14.20;11.90;;;;;;;17.22;63.17;98557.71;436305;1253;99208;-43
2023/06/18 20:53:47;;;;;;;16.90;12.70;;;;;;;17.08;63.93;98564.30;436459;1253;108540;-44
2023/06/18 21:03:56;;;;;;;15.50;12.80;;;;;;;17.05;64.54;98561.05;436373;1249;98488;-43
2023/06/18 21:14:03;;;;;;;15.00;12.60;;;;;;;16.88;65.00;98562.94;436317;1248;111125;-43
2023/06/18 21:24:10;;;;;;;16.10;13.30;;;;;;;16.61;65.21;98558.38;436317;1254;107456;-44
2023/06/18 21:34:18;;;;;;;21.20;14.60;;;;;;;16.50;65.91;98567.46;436193;1253;97950;-42
2023/06/18 21:44:26;;;;;;;24.10;14.70;;;;;;;16.47;66.36;98566.94;436288;1253;109008;-44
2023/06/18 21:54:34;;;;;;;20.40;15.30;;;;;;;16.41;66.80;98558.73;436103;1248;99247;-42
2023/06/18 22:04:41;;;;;;;20.70;14.90;;;;;;;16.36;67.34;98558.84;436358;1252;111834;-42
2023/06/18 22:14:50;;;;;;;20.10;14.00;;;;;;;16.31;67.81;98563.21;436327;1254;108423;-42
2023/06/18 22:24:57;;;;;;;16.00;13.10;;;;;;;16.25;67.92;98561.61;436462;1252;99218;-45
2023/06/18 22:35:06;;;;;;;16.50;13.40;;;;;;;16.17;68.27;98558.64;436342;1252;108199;-45
2023/06/18 22:45:14;;;;;;;15.80;14.00;;;;;;;16.11;68.52;98554.91;436332;1247;97988;-41
2023/06/18 22:55:23;;;;;;;18.20;14.20;;;;;;;15.76;68.70;98554.73;436373;1252;112291;-43
2023/06/18 23:05:30;;;;;;;14.50;12.40;;;;;;;15.53;69.03;98555.45;436376;1251;107939;-43
2023/06/18 23:15:38;;;;;;;15.20;13.40;;;;;;;15.34;69.13;98554.80;436295;1253;99198;-43
2023/06/18 23:25:45;;;;;;;16.00;13.50;;;;;;;15.29;69.37;98551.29;436380;1251;108295;-43
2023/06/18 23:35:53;;;;;;;17.90;14.20;;;;;;;15.10;69.94;98544.08;436449;1253;99247;-43
2023/06/18 23:45:59;;;;;;;17.50;14.70;;;;;;;15.15;70.40;98546.08;436361;1253;111548;-42
2023/06/18 23:56:03;;;;;;;20.50;16.10;;;;;;;14.96;70.60;98540.78;436427;1251;107514;-42
